createdAt,value
2019-04-28T00:01:38.231Z,0.80
2019-04-28T00:04:07.618Z,0.80
2019-04-28T00:06:36.766Z,0.80
2019-04-28T00:09:07.948Z,0.80
2019-04-28T00:11:37.596Z,0.93
2019-04-28T00:14:08.466Z,0.80
2019-04-28T00:16:38.527Z,0.80
2019-04-28T00:19:08.110Z,1.03
2019-04-28T00:21:45.963Z,1.37
2019-04-28T00:24:28.630Z,0.73
2019-04-28T00:27:02.829Z,0.90
2019-04-28T00:29:40.798Z,0.87
2019-04-28T00:32:03.434Z,0.70
2019-04-28T00:34:33.281Z,0.80
2019-04-28T00:37:08.473Z,1.00
2019-04-28T00:39:37.972Z,1.12
2019-04-28T00:42:07.585Z,0.90
2019-04-28T00:52:18.441Z,0.80
2019-04-28T00:54:48.623Z,1.00
2019-04-28T00:57:18.157Z,0.88
2019-04-28T00:59:57.207Z,0.80
2019-04-28T01:02:32.980Z,0.88
2019-04-28T01:05:02.343Z,1.00
2019-04-28T01:07:33.116Z,0.90
2019-04-28T01:10:03.081Z,1.07
2019-04-28T01:12:32.453Z,0.70
2019-04-28T01:15:04.737Z,0.83
2019-04-28T01:17:44.824Z,1.07
2019-04-28T01:20:16.157Z,1.07
2019-04-28T01:22:45.340Z,0.83
2019-04-28T01:25:15.095Z,0.90
2019-04-28T01:27:50.494Z,1.00
2019-04-28T01:30:46.682Z,1.10
2019-04-28T01:33:32.432Z,1.10
2019-04-28T01:36:02.158Z,0.90
2019-04-28T01:38:32.191Z,1.10
2019-04-28T01:41:01.639Z,1.23
2019-04-28T01:43:31.425Z,1.13
2019-04-28T01:46:00.502Z,0.83
2019-04-28T01:48:31.445Z,1.27
2019-04-28T01:51:00.801Z,0.90
2019-04-28T01:53:31.118Z,1.10
2019-04-28T01:56:00.234Z,1.00
2019-04-28T01:58:29.891Z,1.07
2019-04-28T02:00:59.533Z,1.00
2019-04-28T02:03:30.563Z,1.20
2019-04-28T02:06:00.305Z,1.53
2019-04-28T02:08:30.311Z,1.20
2019-04-28T02:11:00.392Z,1.07
2019-04-28T02:13:30.088Z,1.00
2019-04-28T02:16:00.025Z,0.80
2019-04-28T02:18:33.014Z,0.90
2019-04-28T02:21:19.728Z,1.00
2019-04-28T02:23:49.311Z,0.90
2019-04-28T02:26:20.946Z,0.87
2019-04-28T02:28:50.631Z,0.73
2019-04-28T02:31:21.531Z,0.80
2019-04-28T02:33:53.853Z,1.00
2019-04-28T02:36:23.511Z,1.10
2019-04-28T02:38:52.586Z,0.70
2019-04-28T02:41:21.635Z,0.73
2019-04-28T02:43:51.177Z,0.90
2019-04-28T02:46:20.947Z,0.77
2019-04-28T02:48:53.575Z,0.70
2019-04-28T02:51:30.893Z,0.97
2019-04-28T02:54:00.674Z,1.00
2019-04-28T02:56:30.846Z,0.70
2019-04-28T02:59:01.139Z,0.50
2019-04-28T03:06:30.726Z,0.80
2019-04-28T03:09:00.612Z,0.53
2019-04-28T03:11:31.453Z,0.60
2019-04-28T03:14:01.458Z,0.73
2019-04-28T03:16:30.619Z,0.50
2019-04-28T03:19:01.254Z,0.83
2019-04-28T03:21:31.485Z,0.70
2019-04-28T03:24:01.396Z,0.60
2019-04-28T03:26:37.699Z,0.60
2019-04-28T03:29:17.507Z,0.63
2019-04-28T03:32:15.920Z,0.90
2019-04-28T03:34:23.680Z,0.67
2019-04-28T03:36:53.614Z,0.60
2019-04-28T03:39:23.306Z,0.63
2019-04-28T03:41:52.964Z,0.70
2019-04-28T03:44:22.625Z,0.70
2019-04-28T03:46:54.241Z,0.60
2019-04-28T03:49:33.774Z,0.40
2019-04-28T03:52:06.852Z,0.57
2019-04-28T03:54:36.210Z,0.77
2019-04-28T03:57:05.349Z,0.63
2019-04-28T03:59:35.429Z,0.73
2019-04-28T04:02:04.714Z,0.80
2019-04-28T04:04:34.349Z,0.60
2019-04-28T04:07:03.489Z,0.73
2019-04-28T04:09:41.683Z,0.90
2019-04-28T04:12:21.124Z,0.70
2019-04-28T04:14:56.981Z,0.80
2019-04-28T04:17:36.342Z,0.73
2019-04-28T04:20:06.678Z,0.63
2019-04-28T04:22:36.015Z,0.83
2019-04-28T04:25:08.783Z,1.10
2019-04-28T04:27:36.487Z,0.53
2019-04-28T04:30:06.645Z,1.00
2019-04-28T04:32:35.940Z,0.87
2019-04-28T04:35:05.695Z,0.90
2019-04-28T04:37:36.108Z,0.70
2019-04-28T04:40:07.460Z,0.97
2019-04-28T04:42:36.652Z,1.00
2019-04-28T04:45:06.287Z,0.90
2019-04-28T04:47:35.383Z,1.00
2019-04-28T04:50:04.970Z,0.87
2019-04-28T04:52:34.282Z,0.97
2019-04-28T04:55:04.070Z,1.00
2019-04-28T04:57:33.415Z,1.00
2019-04-28T05:00:04.411Z,0.73
2019-04-28T05:02:52.009Z,1.03
2019-04-28T05:05:22.445Z,1.00
2019-04-28T05:07:52.469Z,1.30
2019-04-28T05:10:22.247Z,0.77
2019-04-28T05:12:52.460Z,0.93
2019-04-28T05:15:22.054Z,1.07
2019-04-28T05:17:52.732Z,1.00
2019-04-28T05:20:22.464Z,1.07
2019-04-28T05:23:10.088Z,0.90
2019-04-28T05:25:41.755Z,1.17
2019-04-28T05:28:11.138Z,1.00
2019-04-28T05:30:42.947Z,1.00
2019-04-28T05:33:14.461Z,1.33
2019-04-28T05:35:43.816Z,1.10
2019-04-28T05:38:12.794Z,1.00
2019-04-28T05:40:42.158Z,1.20
2019-04-28T05:43:11.624Z,1.43
2019-04-28T05:45:41.301Z,0.80
2019-04-28T05:48:11.344Z,1.10
2019-04-28T05:50:55.413Z,0.90
2019-04-28T05:53:33.093Z,0.90
2019-04-28T05:56:26.213Z,1.20
2019-04-28T05:59:03.358Z,0.87
2019-04-28T06:01:51.475Z,0.77
2019-04-28T06:04:24.515Z,0.77
2019-04-28T06:06:56.410Z,0.70
2019-04-28T06:09:33.855Z,0.83
2019-04-28T06:12:04.530Z,1.27
2019-04-28T06:14:33.678Z,1.13
2019-04-28T06:17:04.214Z,1.10
2019-04-28T06:19:34.300Z,1.00
2019-04-28T06:22:03.396Z,1.17
2019-04-28T06:24:32.714Z,1.13
2019-04-28T06:27:02.557Z,0.90
2019-04-28T06:29:32.199Z,1.10
2019-04-28T06:32:01.264Z,1.20
2019-04-28T06:34:30.980Z,1.00
2019-04-28T06:37:00.398Z,1.10
2019-04-28T06:39:29.711Z,1.07
2019-04-28T06:41:59.186Z,1.30
2019-04-28T06:44:28.207Z,1.10
2019-04-28T06:46:57.694Z,1.20
2019-04-28T06:49:26.710Z,1.17
2019-04-28T06:51:56.154Z,1.00
2019-04-28T06:54:25.581Z,1.30
2019-04-28T06:56:54.959Z,0.97
2019-04-28T06:59:25.217Z,1.40
2019-04-28T07:19:16.203Z,1.20
2019-04-28T07:24:19.930Z,1.37
2019-04-28T07:26:49.821Z,1.00
2019-04-28T07:29:19.181Z,0.90
2019-04-28T07:31:48.809Z,1.37
2019-04-28T10:59:14.041Z,0.93
2019-04-28T11:01:43.583Z,1.13
2019-04-28T11:04:32.605Z,1.17
2019-04-28T11:07:02.423Z,1.27
2019-04-28T11:09:39.842Z,1.20
2019-04-28T11:12:13.380Z,1.10
2019-04-28T11:14:42.447Z,1.10
2019-04-28T11:17:12.263Z,1.20
2019-04-28T11:19:41.519Z,1.00
2019-04-28T11:22:12.824Z,1.30
2019-04-28T11:24:42.916Z,1.00
2019-04-28T11:27:14.835Z,1.30
2019-04-28T11:29:45.405Z,1.10
2019-04-28T11:32:19.871Z,1.30
2019-04-28T11:35:21.934Z,1.12
2019-04-28T11:37:50.820Z,1.40
2019-04-28T11:40:20.812Z,1.10
2019-04-28T11:42:50.354Z,1.10
2019-04-28T11:50:16.735Z,1.30
2019-04-28T11:52:46.177Z,1.40
2019-04-28T11:55:16.131Z,1.20
2019-04-28T11:57:45.870Z,1.43
2019-04-28T12:00:32.065Z,1.80
2019-04-28T12:03:01.855Z,1.30
2019-04-28T12:05:46.555Z,1.73
2019-04-28T12:08:17.929Z,1.37
2019-04-28T12:11:16.884Z,1.13
2019-04-28T12:14:24.047Z,1.43
2019-04-28T12:17:09.765Z,1.27
2019-04-28T12:19:43.912Z,2.03
2019-04-28T12:22:14.759Z,1.30
2019-04-28T12:24:44.916Z,1.33
2019-04-28T12:27:14.677Z,1.40
2019-04-28T12:39:38.967Z,1.50
2019-04-28T12:42:09.047Z,1.00
2019-04-28T12:44:39.258Z,1.20
2019-04-28T12:52:14.605Z,1.42
2019-04-28T13:17:46.171Z,1.60
2019-04-28T13:20:13.118Z,1.50
2019-04-28T13:22:43.131Z,1.50
2019-04-28T13:25:16.077Z,1.60
2019-04-28T13:27:46.916Z,2.27
2019-04-28T13:30:16.769Z,1.90
2019-04-28T13:32:46.295Z,1.50
2019-04-28T13:35:16.209Z,1.33
2019-04-28T13:37:45.481Z,1.70
2019-04-28T13:40:24.988Z,1.50
2019-04-28T13:42:54.863Z,1.27
2019-04-28T13:45:24.694Z,1.40
2019-04-28T13:47:54.082Z,1.30
2019-04-28T13:50:34.674Z,1.30
2019-04-28T13:53:03.725Z,1.33
2019-04-28T13:55:49.154Z,1.30
2019-04-28T13:58:20.142Z,1.60
2019-04-28T14:01:05.176Z,1.50
2019-04-28T14:03:55.154Z,1.40
2019-04-28T14:06:28.723Z,1.72
2019-04-28T14:08:58.550Z,1.20
2019-04-28T14:11:28.503Z,1.60
2019-04-28T14:13:58.512Z,1.23
2019-04-28T14:16:27.600Z,1.47
2019-04-28T14:18:57.354Z,1.30
2019-04-28T14:21:32.396Z,1.30
2019-04-28T14:39:00.413Z,1.50
2019-04-28T14:41:30.066Z,1.77
2019-04-28T14:44:00.295Z,1.60
2019-04-28T14:46:31.119Z,1.90
2019-04-28T14:49:00.569Z,1.40
2019-04-28T14:51:30.090Z,1.60
2019-04-28T14:54:00.079Z,1.30
2019-04-28T14:56:29.256Z,1.50
2019-04-28T14:58:58.712Z,2.60
2019-04-28T15:04:30.220Z,2.77
2019-04-28T15:07:03.911Z,2.40
2019-04-28T15:09:51.452Z,2.90
2019-04-28T15:12:20.943Z,2.10
2019-04-28T15:14:50.336Z,1.93
2019-04-28T15:17:20.173Z,2.27
2019-04-28T15:19:49.999Z,2.00
2019-04-28T15:22:19.628Z,1.87
2019-04-28T15:24:48.604Z,1.80
2019-04-28T15:27:17.779Z,1.70
2019-04-28T15:29:50.142Z,1.90
2019-04-28T15:32:18.234Z,1.90
2019-04-28T15:34:47.791Z,1.80
2019-04-28T15:37:17.104Z,1.50
2019-04-28T15:39:46.149Z,1.50
2019-04-28T15:42:15.230Z,2.00
2019-04-28T15:44:44.387Z,1.97
2019-04-28T15:47:13.464Z,1.80
2019-04-28T15:49:42.598Z,2.50
2019-04-28T15:52:12.130Z,2.17
2019-04-28T15:54:41.434Z,1.67
2019-04-28T15:59:39.831Z,1.87
2019-04-28T16:02:09.485Z,1.77
2019-04-28T16:04:39.165Z,1.80
2019-04-28T16:07:08.420Z,1.87
2019-04-28T16:09:41.081Z,1.83
2019-04-28T16:12:10.048Z,1.60
2019-04-28T16:14:44.177Z,1.90
2019-04-28T16:17:14.005Z,1.97
2019-04-28T16:19:45.359Z,2.10
2019-04-28T16:22:15.470Z,2.50
2019-04-28T16:24:45.604Z,1.70
2019-04-28T16:27:17.088Z,1.70
2019-04-28T16:29:48.047Z,1.87
2019-04-28T16:32:21.387Z,2.30
2019-04-28T16:34:52.944Z,2.37
2019-04-28T16:37:22.503Z,2.30
2019-04-28T16:39:52.827Z,2.20
2019-04-28T16:42:25.929Z,2.03
2019-04-28T16:44:59.932Z,2.40
2019-04-28T16:47:32.477Z,2.27
2019-04-28T16:50:07.944Z,2.40
2019-04-28T16:52:37.945Z,2.57
2019-04-28T16:55:17.366Z,2.10
2019-04-28T16:57:55.484Z,2.23
2019-04-28T17:00:43.393Z,2.30
2019-04-28T17:03:12.844Z,2.03
2019-04-28T17:05:44.097Z,2.50
2019-04-28T17:08:13.818Z,2.43
2019-04-28T17:10:44.156Z,2.03
2019-04-28T17:13:15.239Z,1.80
2019-04-28T17:15:44.682Z,2.40
2019-04-28T17:18:14.437Z,2.00
2019-04-28T17:20:46.691Z,2.00
2019-04-28T17:25:45.655Z,1.93
2019-04-28T17:28:17.161Z,2.13
2019-04-28T17:30:48.209Z,2.17
2019-04-28T17:33:17.578Z,1.90
2019-04-28T17:35:52.969Z,1.90
2019-04-28T17:38:22.739Z,1.93
2019-04-28T17:40:54.901Z,2.27
2019-04-28T18:07:00.496Z,1.63
2019-04-28T18:09:30.938Z,1.97
2019-04-28T18:12:00.141Z,1.77
2019-04-28T18:14:31.588Z,1.90
2019-04-28T18:17:19.855Z,2.30
2019-04-28T18:19:51.028Z,2.13
2019-04-28T18:22:21.856Z,1.80
2019-04-28T18:24:52.854Z,2.00
2019-04-28T18:27:23.012Z,2.03
2019-04-28T18:29:55.856Z,1.87
2019-04-28T18:32:47.711Z,1.80
2019-04-28T18:35:35.499Z,1.90
2019-04-28T18:38:34.108Z,1.60
2019-04-28T18:41:06.498Z,2.30
2019-04-28T18:44:00.779Z,2.90
2019-04-28T18:46:32.424Z,2.20
2019-04-28T18:49:04.967Z,2.20
2019-04-28T18:51:40.808Z,2.37
2019-04-28T18:54:11.381Z,2.55
2019-04-28T18:56:43.732Z,2.30
2019-04-28T18:59:14.709Z,2.17
2019-04-28T19:02:04.194Z,2.55
2019-04-28T19:04:34.292Z,2.10
2019-04-28T19:07:05.584Z,2.20
2019-04-28T19:09:45.576Z,2.40
2019-04-28T19:12:22.740Z,2.22
2019-04-28T19:15:09.860Z,2.50
2019-04-28T19:17:58.136Z,2.25
2019-04-28T19:20:28.279Z,2.20
2019-04-28T19:22:58.439Z,2.27
2019-04-28T19:25:31.900Z,2.20
2019-04-28T19:28:03.403Z,2.20
2019-04-28T19:30:35.671Z,2.40
2019-04-28T19:33:05.920Z,2.42
2019-04-28T19:35:41.818Z,2.00
2019-04-28T19:38:12.359Z,2.30
2019-04-28T19:40:41.910Z,2.20
2019-04-28T19:43:12.572Z,2.05
2019-04-28T19:45:44.098Z,2.40
2019-04-28T19:51:07.748Z,2.70
2019-04-28T19:53:39.897Z,2.72
2019-04-28T19:56:20.480Z,2.50
2019-04-28T19:58:56.276Z,2.40
2019-04-28T20:01:28.545Z,2.27
2019-04-28T20:03:58.400Z,2.87
2019-04-28T20:06:28.288Z,2.42
2019-04-28T20:08:58.442Z,2.70
2019-04-28T20:11:29.168Z,2.50
2019-04-28T20:14:00.391Z,2.50
2019-04-28T20:16:29.845Z,2.80
2019-04-28T20:19:01.204Z,2.20
2019-04-28T20:21:31.693Z,2.40
2019-04-28T20:24:03.969Z,2.35
2019-04-28T20:26:36.746Z,3.00
2019-04-28T20:29:11.627Z,2.40
2019-04-28T20:31:42.285Z,2.40
2019-04-28T20:34:21.612Z,2.25
2019-04-28T20:37:01.997Z,2.30
2019-04-28T20:39:39.032Z,2.15
2019-04-28T20:42:28.597Z,1.95
2019-04-28T20:45:00.190Z,2.08
2019-04-28T20:47:32.896Z,1.95
2019-04-28T20:50:03.410Z,2.20
2019-04-28T20:52:38.008Z,1.80
2019-04-28T20:55:16.655Z,2.00
2019-04-28T20:57:51.831Z,2.30
2019-04-28T21:00:27.107Z,2.02
2019-04-28T21:02:59.477Z,2.10
2019-04-28T21:05:33.406Z,2.10
2019-04-28T21:08:06.301Z,1.92
2019-04-28T21:10:41.479Z,1.90
2019-04-28T21:13:13.539Z,1.90
2019-04-28T21:15:45.802Z,1.90
2019-04-28T21:18:15.780Z,1.90
2019-04-28T21:20:45.382Z,1.93
2019-04-28T21:23:14.779Z,1.80
2019-04-28T21:25:45.749Z,2.17
2019-04-28T21:28:15.295Z,2.30
2019-04-28T21:30:44.712Z,1.60
2019-04-28T21:33:17.345Z,2.10
2019-04-28T21:35:52.029Z,1.55
2019-04-28T21:38:21.749Z,1.70
2019-04-28T21:40:51.535Z,1.70
2019-04-28T21:43:32.510Z,2.00
2019-04-28T21:46:19.766Z,1.80
2019-04-28T21:48:52.148Z,1.80
2019-04-28T21:51:21.710Z,2.00
2019-04-28T21:53:51.991Z,1.60
2019-04-28T21:56:23.411Z,1.80
2019-04-28T21:58:53.878Z,2.00
2019-04-28T22:01:26.739Z,1.65
2019-04-28T22:03:55.872Z,1.77
2019-04-28T22:06:26.223Z,1.80
2019-04-28T22:08:59.285Z,2.10
2019-04-28T22:11:31.296Z,1.60
2019-04-28T22:14:00.794Z,1.85
2019-04-28T22:16:30.276Z,1.65
2019-04-28T22:18:59.461Z,1.62
2019-04-28T22:21:28.607Z,1.80
2019-04-28T22:24:20.318Z,1.67
2019-04-28T22:26:51.541Z,1.60
2019-04-28T22:29:21.174Z,1.60
2019-04-28T22:31:50.268Z,1.70
2019-04-28T22:34:20.177Z,1.70
2019-04-28T22:36:50.421Z,1.80
2019-04-28T22:39:20.029Z,1.72
2019-04-28T22:41:49.825Z,1.50
2019-04-28T22:44:21.994Z,1.70
2019-04-28T22:46:52.986Z,1.62
2019-04-28T22:49:22.595Z,1.70
2019-04-28T22:51:54.852Z,2.10
2019-04-28T22:54:42.595Z,1.60
2019-04-28T22:57:25.909Z,1.70
2019-04-28T22:59:55.662Z,1.90
2019-04-28T23:02:26.599Z,1.62
2019-04-28T23:05:08.283Z,1.60
2019-04-28T23:07:38.059Z,1.90
2019-04-28T23:10:08.929Z,1.80
2019-04-28T23:12:38.361Z,1.70
2019-04-28T23:15:08.224Z,1.80
2019-04-28T23:17:38.043Z,1.90
2019-04-28T23:20:11.868Z,1.65
2019-04-28T23:22:47.889Z,1.80
2019-04-28T23:25:21.650Z,1.93
2019-04-28T23:27:51.189Z,1.80
2019-04-28T23:30:39.193Z,2.13
2019-04-28T23:33:09.096Z,2.07
2019-04-28T23:35:38.500Z,1.70
2019-04-28T23:38:08.794Z,1.57
2019-04-28T23:40:41.675Z,1.90
2019-04-28T23:43:16.212Z,1.60
2019-04-28T23:45:45.258Z,1.70
2019-04-28T23:48:16.570Z,1.70
2019-04-28T23:51:12.387Z,1.87
2019-04-28T23:53:59.503Z,1.90
2019-04-28T23:56:29.344Z,2.00
